English version
lugares datos climáticos artículos

datos de Mairena del Aljarafe, Sevilla, España
Año Mes Dia Mostrar

  Fecha       hora        Temp.ext.    Hum.ext.  Dir.Viento   Vel.Viento  Presion al NM   T.int. Prec.hoy 

   25-07-2017    08:30      22.8º(+0.5)     75%         -         0.0 km/h    1012.7 hpa     31.2º    0.0 mm
   25-07-2017    08:25      22.7º(+0.2)     75%         -         0.0 km/h    1012.7 hpa     31.1º    0.0 mm
   25-07-2017    08:20      22.6º(+0.1)     76%         -         0.0 km/h    1012.6 hpa     31.1º    0.0 mm
   25-07-2017    08:15      22.4º(-0.0)     77%         -         0.0 km/h    1012.5 hpa     31.1º    0.0 mm
   25-07-2017    08:10      22.2º(-0.0)     78%         -         0.0 km/h    1012.5 hpa     31.1º    0.0 mm
   25-07-2017    08:05      22.1º(+0.0)     78%         -         0.0 km/h    1012.5 hpa     31.1º    0.0 mm
   25-07-2017    08:00      21.9º(+0.1)     79%         -         0.0 km/h    1012.6 hpa     31.1º    0.0 mm
   25-07-2017    07:55      21.8º(+0.2)     79%         -         0.0 km/h    1012.6 hpa     31.1º    0.0 mm
   25-07-2017    07:50      21.7º(+0.4)     79%         -         0.0 km/h    1012.6 hpa     31.1º    0.0 mm
   25-07-2017    07:45      21.6º(+0.4)     79%         -         0.0 km/h    1012.7 hpa     31.1º    0.0 mm
   25-07-2017    07:40      21.6º(+0.6)     79%         -         0.0 km/h    1012.5 hpa     31.1º    0.0 mm
   25-07-2017    07:35      21.6º(+0.7)     79%         -         0.0 km/h    1012.5 hpa     31.1º    0.0 mm
   25-07-2017    07:30      21.7º(+1.0)     79%         -         0.0 km/h    1012.6 hpa     31.1º    0.0 mm
   25-07-2017    07:25      21.7º(+1.1)     78%         -         0.0 km/h    1012.5 hpa     31.2º    0.0 mm
   25-07-2017    07:20      21.6º(+1.1)     78%         -         0.0 km/h    1012.5 hpa     31.2º    0.0 mm
   25-07-2017    07:15      21.6º(+1.1)     78%         -         0.0 km/h    1012.5 hpa     31.2º    0.0 mm
   25-07-2017    07:10      21.4º(+0.9)     78%         -         0.0 km/h    1012.5 hpa     31.2º    0.0 mm
   25-07-2017    07:05      21.4º(+1.0)     78%         -         0.0 km/h    1012.5 hpa     31.2º    0.0 mm
   25-07-2017    07:00      21.4º(+1.0)     77%         -         0.0 km/h    1012.5 hpa     31.2º    0.0 mm
   25-07-2017    06:55      21.6º(+1.1)     76%         -         0.0 km/h    1012.5 hpa     31.2º    0.0 mm
   25-07-2017    06:50      21.9º(+1.4)     74%         -         0.0 km/h    1012.6 hpa     31.2º    0.0 mm
   25-07-2017    06:45      22.4º(+1.8)     72%         -         0.0 km/h    1012.5 hpa     31.3º    0.0 mm
   25-07-2017    06:40      22.8º(+2.2)     72%         -         0.0 km/h    1012.5 hpa     31.3º    0.0 mm
   25-07-2017    06:35      23.1º(+2.4)     72%         -         0.0 km/h    1012.3 hpa     31.3º    0.0 mm
   25-07-2017    06:30      23.2º(+2.5)     72%         -         0.0 km/h    1012.4 hpa     31.3º    0.0 mm
   25-07-2017    06:25      23.2º(+2.5)     72%         -         0.0 km/h    1012.5 hpa     31.3º    0.0 mm
   25-07-2017    06:20      23.2º(+2.5)     72%         -         0.0 km/h    1012.3 hpa     31.3º    0.0 mm
   25-07-2017    06:15      23.2º(+2.5)     72%         -         0.0 km/h    1012.4 hpa     31.3º    0.0 mm
   25-07-2017    06:10      23.1º(+2.4)     72%         -         0.0 km/h    1012.5 hpa     31.3º    0.0 mm
   25-07-2017    06:05      23.1º(+2.4)     72%         -         0.0 km/h    1012.5 hpa     31.3º    0.0 mm
   25-07-2017    06:00      23.1º(+2.4)     72%         -         0.0 km/h    1012.5 hpa     31.3º    0.0 mm
   25-07-2017    05:55      23.1º(+2.4)     72%         -         0.0 km/h    1012.5 hpa     31.3º    0.0 mm
   25-07-2017    05:50      22.9º(+2.2)     71%         -         0.0 km/h    1012.5 hpa     31.3º    0.0 mm
   25-07-2017    05:45      22.9º(+2.2)     71%         -         0.0 km/h    1012.5 hpa     31.3º    0.0 mm
   25-07-2017    05:40      22.9º(+2.2)     71%         -         0.0 km/h    1012.5 hpa     31.3º    0.0 mm
   25-07-2017    05:35      22.9º(+2.3)     71%         -         0.0 km/h    1012.5 hpa     31.3º    0.0 mm
   25-07-2017    05:30      22.8º(+2.2)     71%         -         0.0 km/h    1012.6 hpa     31.3º    0.0 mm
   25-07-2017    05:25      22.8º(+2.2)     71%         -         0.0 km/h    1012.5 hpa     31.3º    0.0 mm
   25-07-2017    05:20      22.7º(+2.1)     72%         -         0.0 km/h    1012.6 hpa     31.3º    0.0 mm
   25-07-2017    05:15      22.7º(+2.1)     72%         -         0.0 km/h    1012.6 hpa     31.3º    0.0 mm
   25-07-2017    05:10      22.7º(+2.0)     71%         -         0.0 km/h    1012.7 hpa     31.3º    0.0 mm
   25-07-2017    05:05      22.7º(+2.0)     71%         -         0.0 km/h    1012.6 hpa     31.3º    0.0 mm
   25-07-2017    05:00      22.7º(+2.0)     71%         -         0.0 km/h    1012.7 hpa     31.3º    0.0 mm
   25-07-2017    04:55      22.7º(+2.0)     71%         -         0.0 km/h    1012.8 hpa     31.3º    0.0 mm
   25-07-2017    04:50      22.7º(+2.0)     71%         -         0.0 km/h    1012.8 hpa     31.3º    0.0 mm
   25-07-2017    04:45      22.8º(+2.0)     71%         -         0.0 km/h    1012.8 hpa     31.3º    0.0 mm
   25-07-2017    04:40      22.9º(+1.9)     70%         -         0.0 km/h    1012.8 hpa     31.3º    0.0 mm
   25-07-2017    04:35      23.0º(+1.8)     70%         -         0.0 km/h    1012.9 hpa     31.3º    0.0 mm
   25-07-2017    04:30      23.1º(+1.8)     69%         -         0.0 km/h    1012.9 hpa     31.3º    0.0 mm
   25-07-2017    04:25      23.2º(+1.9)     69%         -         0.0 km/h    1012.9 hpa     31.3º    0.0 mm
   25-07-2017    04:20      23.2º(+1.9)     69%         -         0.0 km/h    1013.0 hpa     31.3º    0.0 mm
   25-07-2017    04:15      23.3º(+2.1)     69%         -         0.0 km/h    1013.0 hpa     31.3º    0.0 mm
   25-07-2017    04:10      23.3º(+2.1)     69%         -         0.0 km/h    1013.0 hpa     31.3º    0.0 mm
   25-07-2017    04:05      23.4º(+2.2)     69%         -         0.0 km/h    1013.1 hpa     31.3º    0.0 mm
   25-07-2017    04:00      23.4º(+2.2)     68%         -         0.0 km/h    1013.1 hpa     31.3º    0.0 mm
   25-07-2017    03:55      23.6º(+2.5)     68%         -         0.0 km/h    1013.1 hpa     31.3º    0.0 mm
   25-07-2017    03:50      23.7º(+2.6)     67%         -         0.0 km/h    1013.2 hpa     31.3º    0.0 mm
   25-07-2017    03:45      23.8º(+2.7)     67%         -         0.0 km/h    1013.2 hpa     31.3º    0.0 mm
   25-07-2017    03:40      23.8º(+2.7)     67%         -         0.0 km/h    1013.2 hpa     31.3º    0.0 mm
   25-07-2017    03:35      23.8º(+2.6)     67%         -         0.0 km/h    1013.3 hpa     31.3º    0.0 mm
   25-07-2017    03:30      23.8º(+2.6)     67%         -         0.0 km/h    1013.2 hpa     31.3º    0.0 mm
   25-07-2017    03:25      23.7º(+2.5)     68%         -         0.0 km/h    1013.3 hpa     31.4º    0.0 mm
   25-07-2017    03:20      23.7º(+2.5)     69%         -         0.0 km/h    1013.4 hpa     31.4º    0.0 mm
   25-07-2017    03:15      23.7º(+2.5)     71%         -         0.0 km/h    1013.4 hpa     31.4º    0.0 mm
   25-07-2017    03:10      23.7º(+2.6)     71%         -         0.0 km/h    1013.4 hpa     31.4º    0.0 mm
   25-07-2017    03:05      23.7º(+2.6)     72%         -         0.0 km/h    1013.4 hpa     31.4º    0.0 mm
   25-07-2017    03:00      23.6º(+2.4)     72%         -         0.0 km/h    1013.5 hpa     31.4º    0.0 mm
   25-07-2017    02:55      23.7º(+2.6)     73%         -         0.0 km/h    1013.5 hpa     31.3º    0.0 mm
   25-07-2017    02:50      23.7º(+2.6)     73%         -         0.0 km/h    1013.5 hpa     31.3º    0.0 mm
   25-07-2017    02:45      23.8º(+2.6)     73%         -         0.0 km/h    1013.5 hpa     31.4º    0.0 mm
   25-07-2017    02:40      23.8º(+2.6)     72%         -         0.0 km/h    1013.5 hpa     31.4º    0.0 mm
   25-07-2017    02:35      23.9º(+2.7)     73%         -         0.0 km/h    1013.5 hpa     31.4º    0.0 mm
   25-07-2017    02:30      23.8º(+2.6)     73%         -         0.0 km/h    1013.5 hpa     31.4º    0.0 mm
   25-07-2017    02:25      23.8º(+2.5)     73%         -         0.0 km/h    1013.5 hpa     31.4º    0.0 mm
   25-07-2017    02:20      23.8º(+2.5)     73%         -         0.0 km/h    1013.5 hpa     31.4º    0.0 mm
   25-07-2017    02:15      23.8º(+2.4)     73%         -         0.0 km/h    1013.6 hpa     31.4º    0.0 mm
   25-07-2017    02:10      23.8º(+2.4)     72%         -         0.0 km/h    1013.6 hpa     31.4º    0.0 mm
   25-07-2017    02:05      23.9º(+2.5)     72%         -         0.0 km/h    1013.7 hpa     31.4º    0.0 mm
   25-07-2017    02:00      23.9º(+2.4)     72%         -         0.0 km/h    1013.8 hpa     31.4º    0.0 mm
   25-07-2017    01:55      23.9º(----)     72%         -         0.0 km/h    1013.7 hpa     31.4º    0.0 mm
   25-07-2017    01:50      23.9º(----)     72%         -         0.0 km/h    1013.7 hpa     31.4º    0.0 mm
   25-07-2017    01:45      23.9º(----)     72%         -         0.0 km/h    1013.7 hpa     31.4º    0.0 mm
   25-07-2017    01:40      23.9º(----)     72%         -         0.0 km/h    1013.8 hpa     31.4º    0.0 mm
   25-07-2017    01:35      23.8º(----)     72%         -         0.0 km/h    1013.8 hpa     31.4º    0.0 mm
   25-07-2017    01:30      23.8º(----)     72%         -         0.0 km/h    1013.9 hpa     31.4º    0.0 mm
   25-07-2017    01:25      23.8º(----)     73%      112 (E)      3.2 km/h    1013.8 hpa     31.4º    0.0 mm
   25-07-2017    01:20      23.8º(----)     73%      112 (E)      4.8 km/h    1013.8 hpa     31.4º    0.0 mm
   25-07-2017    01:15      23.9º(----)     73%      112 (E)      1.6 km/h    1013.9 hpa     31.4º    0.0 mm
   25-07-2017    01:10      23.9º(----)     72%      112 (E)      1.6 km/h    1013.9 hpa     31.4º    0.0 mm
   25-07-2017    01:05      23.9º(----)     73%      112 (E)      3.2 km/h    1013.7 hpa     31.4º    0.0 mm
   25-07-2017    01:00      23.9º(----)     73%      112 (E)      6.4 km/h    1013.7 hpa     31.6º    0.0 mm
   25-07-2017    00:55      23.9º(----)     73%      112 (E)      4.8 km/h    1013.8 hpa     31.6º    0.0 mm
   25-07-2017    00:50      24.0º(----)     73%      112 (E)      1.6 km/h    1013.7 hpa     31.6º    0.0 mm
   25-07-2017    00:45      24.1º(----)     72%      112 (E)      4.8 km/h    1013.8 hpa     31.6º    0.0 mm
   25-07-2017    00:40      24.2º(----)     72%      112 (E)      6.4 km/h    1013.8 hpa     31.6º    0.0 mm
   25-07-2017    00:35      24.3º(----)     71%      112 (E)      4.8 km/h    1013.8 hpa     31.6º    0.0 mm
   25-07-2017    00:30      24.3º(----)     71%      112 (E)      8.0 km/h    1013.9 hpa     31.6º    0.0 mm
   25-07-2017    00:25      24.4º(----)     70%      135(SE)      8.0 km/h    1013.9 hpa     31.7º    0.0 mm
   25-07-2017    00:20      24.5º(----)     70%      135(SE)      3.2 km/h    1013.8 hpa     31.7º    0.0 mm
   25-07-2017    00:15      24.6º(----)     69%      135(SE)      4.8 km/h    1013.8 hpa     31.7º    0.0 mm
   25-07-2017    00:10      24.6º(----)     69%      135(SE)      3.2 km/h    1013.8 hpa     31.7º    0.0 mm
   25-07-2017    00:05      24.7º(----)     69%      135(SE)      4.8 km/h    1013.7 hpa     31.7º    0.0 mm
   25-07-2017    00:00      24.8º(----)     68%      135(SE)      4.8 km/h    1013.7 hpa     31.7º    0.0 mm